Latest Weather Observations for Ferny Creek

IDV60801

Issued at 6:05 pm EST Thursday 24 July 2014 (issued every 30 minutes, with the page automatically refreshed every 10 minutes)

About weather observations | Map of weather stations | Latest weather observations for VIC | Other Formats
Station Details ID: 086266 Name: FERNY CREEK Lat: -37.87 Lon: 145.35 Height: 512.9 m
Data from the previous 72 hours. | See also: Recent months at Ferny Creek
Date/Time
EST
Temp
°C
App
Temp
°C
Dew
Point
Rel
Hum
%
Delta-T
°C
Wind Press
QNH
hPa
Press
MSL
hPa
Rain
since 9 am
mm
Dir
 
Spd
km/h
Gust
km/h
Spd
kts
Gust
kts
24/06:00pm 9.8 5.7 4.2 68 2.6 NE 15 24 8 13 1013.1 1013.8 0.0
24/05:30pm 9.9 5.5 4.5 69 2.5 NE 17 28 9 15 1013.2 - 0.0
24/05:00pm 9.3 5.1 5.5 77 1.8 NE 17 28 9 15 1013.2 1013.9 0.0
24/04:30pm 9.3 5.9 5.9 79 1.6 NE 13 22 7 12 1013.2 - 0.0
24/04:00pm 9.6 6.6 5.8 77 1.8 NNE 11 26 6 14 1013.4 1014.2 0.0
24/03:30pm 9.8 6.8 5.8 76 1.9 NNE 11 22 6 12 1013.3 - 0.0
24/03:00pm 10.1 7.5 5.9 75 2.0 NNE 9 20 5 11 1013.2 1013.9 0.0
24/02:30pm 10.1 6.6 5.5 73 2.2 NNE 13 22 7 12 1012.9 - 0.0
24/02:00pm 10.3 6.5 5.7 73 2.2 NNE 15 30 8 16 1013.1 1013.8 0.0
24/01:30pm 9.6 5.5 6.0 78 1.7 NE 17 33 9 18 1013.6 - 0.0
24/01:00pm 9.3 4.4 5.3 76 1.9 NE 20 35 11 19 1014.1 1014.9 0.0
24/12:30pm 8.6 3.9 5.0 78 1.7 NE 19 35 10 19 1014.5 - 0.0
24/12:00pm 8.7 4.6 4.3 74 2.0 NE 15 28 8 15 1015.4 1016.2 0.0
24/11:30am 9.0 5.3 4.2 72 2.2 NNE 13 28 7 15 1016.2 - 0.0
24/11:00am 9.6 6.9 3.6 66 2.7 NNE 7 15 4 8 1016.6 1017.5 0.0
24/10:30am 9.8 5.5 3.1 63 3.0 NE 15 22 8 12 1016.4 - 0.0
24/10:00am 9.7 5.4 3.0 63 3.0 NE 15 30 8 16 1016.4 1017.2 0.0
24/09:30am 9.9 5.6 3.2 63 3.0 NE 15 22 8 12 1016.3 - 0.0
24/09:00am 9.6 5.6 2.7 62 3.0 NE 13 30 7 16 1016.1 1016.9 0.0
24/08:30am 8.8 4.4 2.6 65 2.7 NE 15 26 8 14 1015.9 - 0.0
24/08:00am 8.4 4.7 2.4 66 2.6 NE 11 20 6 11 1016.0 1016.8 0.0
24/07:30am 8.5 4.8 2.5 66 2.6 NE 11 19 6 10 1016.0 - 0.0
24/07:00am 8.4 4.3 2.4 66 2.6 NE 13 30 7 16 1016.0 1016.8 0.0
24/06:30am 8.4 4.7 2.4 66 2.6 NE 11 20 6 11 1016.1 - 0.0
24/06:00am 8.2 4.5 2.2 66 2.6 NE 11 20 6 11 1016.2 1017.0 0.0
24/05:30am 8.0 4.2 2.0 66 2.6 NE 11 19 6 10 1016.3 - 0.0
24/05:00am 8.6 5.7 2.4 65 2.7 NNE 7 15 4 8 1016.4 1017.2 0.0
24/04:30am 8.6 5.7 2.4 65 2.7 NNE 7 19 4 10 1016.4 - 0.0
24/04:00am 8.6 5.7 2.4 65 2.7 NNE 7 22 4 12 1016.5 1017.3 0.0
24/03:30am 7.7 4.7 2.0 67 2.4 NNE 7 17 4 9 1016.3 - 0.0
24/03:00am 7.8 4.4 2.1 67 2.4 NNE 9 20 5 11 1016.5 1017.3 0.0
24/02:30am 8.0 4.6 1.8 65 2.6 NE 9 19 5 10 1016.6 - 0.0
24/02:00am 7.7 4.6 1.3 64 2.7 N 7 13 4 7 1017.0 1017.8 0.0
24/01:30am 7.5 4.5 0.9 63 2.7 N 6 13 3 7 1017.1 - 0.0
24/01:00am 7.4 4.4 1.0 64 2.6 N 6 13 3 7 1017.2 1018.0 0.0
24/12:30am 6.9 4.0 1.6 69 2.2 NNE 6 9 3 5 1017.6 - 0.0
24/12:00am 7.3 4.5 2.0 69 2.2 NNE 6 11 3 6 1018.0 1018.8 0.0
 
Date/Time
EST
Temp
°C
App
Temp
°C
Dew
Point
Rel
Hum
%
Delta-T
°C
Wind Press
QNH
hPa
Press
MSL
hPa
Rain
since 9 am
mm
Dir
 
Spd
km/h
Gust
km/h
Spd
kts
Gust
kts
23/11:30pm 7.2 4.8 1.9 69 2.2 NNE 4 7 2 4 1018.2 - 0.0
23/11:00pm 7.6 5.3 2.5 70 2.2 N 4 11 2 6 1018.4 1019.3 0.0
23/10:30pm 7.8 5.2 3.1 72 2.1 NNE 6 15 3 8 1018.9 - 0.0
23/10:00pm 7.7 5.4 2.8 71 2.1 N 4 7 2 4 1019.2 1020.0 0.0
23/09:30pm 7.4 5.5 2.7 72 2.0 N 2 7 1 4 1019.4 - 0.0
23/09:00pm 7.5 5.5 2.2 69 2.3 NE 2 6 1 3 1019.5 1020.3 0.0
23/08:30pm 8.0 5.9 2.0 66 2.6 NNW 2 9 1 5 1019.6 - 0.0
23/08:00pm 7.3 5.2 2.0 69 2.2 N 2 7 1 4 1019.7 1020.5 0.0
23/07:30pm 7.7 6.0 2.0 67 2.4 CALM 0 4 0 2 1019.7 - 0.0
23/07:00pm 7.8 5.8 2.1 67 2.4 NNW 2 4 1 2 1019.5 1020.3 0.0
23/06:30pm 7.6 5.9 1.9 67 2.4 CALM 0 2 0 1 1019.5 - 0.0
23/06:00pm 7.7 5.7 2.4 69 2.3 NNW 2 4 1 2 1019.4 1020.2 0.0
23/05:30pm 7.7 5.8 3.0 72 2.0 N 2 6 1 3 1019.3 - 0.0
23/05:00pm 8.3 6.4 2.8 68 2.4 NNW 2 4 1 2 1019.2 1020.0 0.0
23/04:30pm 8.8 6.9 3.0 67 2.6 NW 2 6 1 3 1019.2 - 0.0
23/04:00pm 9.3 7.3 2.4 62 3.0 NNE 2 6 1 3 1019.1 1019.9 0.0
23/03:30pm 9.6 7.3 2.9 63 3.0 NNE 4 7 2 4 1019.2 - 0.0
23/03:00pm 9.7 7.0 2.6 61 3.1 N 6 11 3 6 1019.4 1020.2 0.0
23/02:30pm 9.6 7.6 2.2 60 3.2 N 2 6 1 3 1019.6 - 0.0
23/02:00pm 9.6 7.3 2.5 61 3.1 N 4 7 2 4 1019.8 1020.6 0.0
23/01:30pm 9.8 7.5 2.9 62 3.1 N 4 7 2 4 1020.2 - 0.0
23/01:00pm 9.5 7.1 2.1 60 3.2 N 4 7 2 4 1020.6 1021.5 0.0
23/12:30pm 9.5 7.1 2.1 60 3.2 NNW 4 9 2 5 1021.2 - 0.0
23/12:00pm 10.3 7.6 2.4 58 3.5 NNW 6 13 3 7 1021.7 1022.6 0.0
23/11:30am 10.2 7.2 1.8 56 3.6 NW 7 15 4 8 1022.1 - 0.0
23/11:00am 10.6 7.6 0.9 51 4.1 NNW 6 13 3 7 1022.6 1023.5 0.0
23/10:30am 10.7 8.1 0.7 50 4.2 NNW 4 7 2 4 1022.7 - 0.0
23/10:00am 10.8 7.9 1.6 53 4.0 N 6 9 3 5 1022.8 1023.7 0.0
23/09:30am 10.2 7.4 -0.3 48 4.3 NNW 4 9 2 5 1022.6 - 0.0
23/09:00am 9.9 7.6 0.3 51 4.0 N 2 6 1 3 1022.7 1023.6 0.2
23/08:30am 8.8 6.3 1.5 60 3.1 N 4 7 2 4 1022.7 - 0.2
23/08:00am 7.3 5.0 0.1 60 2.9 NW 2 4 1 2 1022.7 1023.6 0.2
23/07:30am 6.0 3.0 1.0 70 2.0 WNW 6 7 3 4 1022.8 - 0.2
23/07:00am 6.2 3.2 1.1 70 2.1 NW 6 9 3 5 1022.5 1023.4 0.2
23/06:30am 5.8 3.0 2.1 77 1.5 NW 6 9 3 5 1022.4 - 0.2
23/06:00am 6.2 3.1 1.5 72 1.9 NW 7 11 4 6 1022.2 1023.1 0.2
23/05:30am 6.5 3.4 1.6 71 2.0 NW 7 9 4 5 1022.1 - 0.2
23/05:00am 6.6 3.6 1.7 71 2.0 NW 7 11 4 6 1022.2 1023.1 0.2
23/04:30am 6.1 3.2 1.6 73 1.9 NW 6 7 3 4 1022.2 - 0.2
23/04:00am 5.5 2.5 2.0 78 1.4 NW 7 11 4 6 1022.3 1023.2 0.2
23/03:30am 5.2 2.5 2.6 83 1.1 NW 6 7 3 4 1022.4 - 0.2
23/03:00am 4.9 2.6 2.9 87 0.8 NW 4 7 2 4 1022.5 1023.4 0.2
23/02:30am 4.5 2.3 3.3 92 0.5 NW 4 7 2 4 1022.6 - 0.2
23/02:00am 4.4 2.3 3.8 96 0.3 NW 4 6 2 3 1022.7 1023.6 0.2
23/01:30am 4.4 3.1 4.0 97 0.2 CALM 0 0 0 0 1022.8 - 0.0
23/01:00am 4.0 2.2 3.6 97 0.2 NNE 2 6 1 3 1023.1 1023.9 0.0
23/12:30am 4.3 3.0 3.9 97 0.2 CALM 0 0 0 0 1023.2 - 0.0
23/12:00am 4.9 2.9 4.6 98 0.1 ENE 4 6 2 3 1023.4 1024.3 0.0
 
Date/Time
EST
Temp
°C
App
Temp
°C
Dew
Point
Rel
Hum
%
Delta-T
°C
Wind Press
QNH
hPa
Press
MSL
hPa
Rain
since 9 am
mm
Dir
 
Spd
km/h
Gust
km/h
Spd
kts
Gust
kts
22/11:30pm 5.0 3.0 4.6 97 0.2 E 4 7 2 4 1023.6 - 0.0
22/11:00pm 5.1 3.2 4.7 97 0.2 E 4 6 2 3 1023.8 1024.7 0.0
22/10:30pm 5.2 3.3 4.8 97 0.2 E 4 6 2 3 1023.9 - 0.0
22/10:00pm 5.2 3.3 4.8 97 0.2 E 4 6 2 3 1023.9 1024.8 0.0
22/09:30pm 5.2 3.7 4.8 97 0.2 SE 2 6 1 3 1024.0 - 0.0
22/09:00pm 5.0 3.0 4.6 97 0.2 SE 4 7 2 4 1023.8 1024.7 0.0
22/08:30pm 4.8 2.8 4.4 97 0.2 SE 4 9 2 5 1023.7 - 0.0
22/08:00pm 4.5 2.1 4.1 97 0.2 E 6 7 3 4 1023.5 1024.4 0.0
22/07:30pm 5.1 2.8 4.7 97 0.2 E 6 7 3 4 1023.5 - 0.0
22/07:00pm 5.3 3.0 4.9 97 0.2 E 6 9 3 5 1023.4 1024.3 0.0
22/06:30pm 5.3 3.0 4.9 97 0.2 E 6 9 3 5 1023.4 - 0.0
22/06:00pm 5.1 3.1 4.5 96 0.3 ESE 4 7 2 4 1023.5 1024.4 0.0
22/05:30pm 5.4 3.1 4.8 96 0.3 E 6 9 3 5 1023.4 - 0.0
22/05:00pm 5.6 3.3 4.7 94 0.4 E 6 7 3 4 1023.4 1024.3 0.0
22/04:30pm 6.0 3.5 4.6 91 0.6 E 7 11 4 6 1023.3 - 0.0
22/04:00pm 6.7 4.4 4.7 87 0.9 E 6 13 3 7 1023.5 1024.4 0.0
22/03:30pm 7.0 4.1 4.8 86 1.0 ENE 9 13 5 7 1023.5 - 0.0
22/03:00pm 7.5 5.0 4.8 83 1.2 ENE 7 11 4 6 1023.6 1024.5 0.0
22/02:30pm 7.8 5.4 5.3 84 1.1 ENE 7 11 4 6 1023.7 - 0.0
22/02:00pm 7.7 5.5 5.3 85 1.1 E 6 11 3 6 1023.8 1024.7 0.0
22/01:30pm 7.4 4.9 4.9 84 1.1 ENE 7 9 4 5 1023.9 - 0.0
22/01:00pm 8.5 6.4 6.0 84 1.2 E 6 7 3 4 1024.1 1025.0 0.0
22/12:30pm 8.7 6.4 4.7 76 1.8 E 6 9 3 5 1024.5 - 0.0
22/12:00pm 9.4 7.2 5.4 76 1.9 E 6 9 3 5 1024.7 1025.6 0.0
22/11:30am 8.7 6.3 4.5 75 1.9 NE 6 7 3 4 1025.2 - 0.0
22/11:00am 9.1 6.7 4.5 73 2.1 ENE 6 9 3 5 1025.3 1026.2 0.0
22/10:30am 8.9 6.7 3.5 69 2.4 ESE 4 9 2 5 1025.3 - 0.0
22/10:00am 8.8 7.3 4.8 76 1.8 S 2 6 1 3 1025.4 1026.3 0.0
22/09:30am 8.3 6.6 3.9 74 2.0 SE 2 4 1 2 1025.0 - 0.0
22/09:00am 8.2 6.0 3.5 72 2.1 ESE 4 7 2 4 1024.9 1025.9 0.2
22/08:30am 7.2 5.1 4.0 80 1.4 E 4 7 2 4 1024.7 - 0.2
22/08:00am 5.3 3.0 2.8 84 1.1 E 4 6 2 3 1024.7 1025.6 0.2
22/07:30am 4.2 2.5 2.1 86 0.9 CALM 0 0 0 0 1024.5 - 0.2
22/07:00am 4.2 1.8 1.9 85 0.9 E 4 7 2 4 1024.1 1025.0 0.2
22/06:30am 4.5 2.9 2.2 85 1.0 CALM 0 4 0 2 1024.0 - 0.2
22/06:00am 4.1 2.5 2.3 88 0.7 CALM 0 0 0 0 1023.9 1024.8 0.2
22/05:30am 4.2 2.7 2.9 91 0.5 CALM 0 0 0 0 1023.7 - 0.2
22/05:00am 4.3 2.8 3.1 92 0.5 CALM 0 0 0 0 1023.7 1024.6 0.2
22/04:30am 4.6 3.2 3.6 93 0.4 CALM 0 0 0 0 1023.6 - 0.2
22/04:00am 4.2 2.6 2.4 88 0.7 CALM 0 0 0 0 1023.5 1024.4 0.0
22/03:30am 4.4 2.8 2.6 88 0.8 CALM 0 0 0 0 1023.5 - 0.0
22/03:00am 4.2 2.6 2.6 89 0.7 CALM 0 0 0 0 1023.7 1024.6 0.0
22/02:30am 4.4 2.9 2.8 89 0.7 CALM 0 0 0 0 1023.8 - 0.0
22/02:00am 4.8 3.4 3.5 91 0.6 CALM 0 0 0 0 1023.8 1024.7 0.0
22/01:30am 4.7 3.3 3.5 92 0.5 CALM 0 0 0 0 1023.9 - 0.0
22/01:00am 4.9 3.5 3.7 92 0.5 CALM 0 0 0 0 1024.0 1024.9 0.0
22/12:30am 4.6 3.1 3.1 90 0.6 CALM 0 0 0 0 1024.2 - 0.0
22/12:00am 4.9 3.4 2.9 87 0.8 CALM 0 2 0 1 1024.2 1025.1 0.0
 
Date/Time
EST
Temp
°C
App
Temp
°C
Dew
Point
Rel
Hum
%
Delta-T
°C
Wind Press
QNH
hPa
Press
MSL
hPa
Rain
since 9 am
mm
Dir
 
Spd
km/h
Gust
km/h
Spd
kts
Gust
kts
21/11:30pm 4.9 3.4 2.9 87 0.8 CALM 0 0 0 0 1024.4 - 0.0
21/11:00pm 5.0 3.6 3.3 89 0.7 CALM 0 0 0 0 1024.4 1025.3 0.0
21/10:30pm 5.0 3.2 3.3 89 0.7 E 2 4 1 2 1024.3 - 0.0
21/10:00pm 5.2 3.4 3.7 90 0.6 E 2 4 1 2 1024.2 1025.1 0.0
21/09:30pm 5.2 3.5 4.0 92 0.5 NE 2 4 1 2 1024.3 - 0.0
21/09:00pm 5.4 3.8 4.5 94 0.4 ENE 2 4 1 2 1024.4 1025.3 0.0
21/08:30pm 5.0 3.2 3.2 88 0.8 E 2 4 1 2 1024.2 - 0.0
21/08:00pm 5.4 3.7 1.7 77 1.5 CALM 0 0 0 0 1024.2 1025.1 0.0
21/07:30pm 5.8 4.0 1.2 72 1.9 CALM 0 0 0 0 1024.3 - 0.0
21/07:00pm 5.8 4.0 1.5 74 1.8 CALM 0 0 0 0 1024.2 1025.1 0.0
21/06:30pm 5.9 4.2 1.8 75 1.7 CALM 0 0 0 0 1024.0 - 0.0

Other Formats:

Comma delimited format used in spreadsheet applications
http://www.bom.gov.au/fwo/IDV60801/IDV60801.94872.axf

JavaScript Object Notation format (JSON) in row-major order
http://www.bom.gov.au/fwo/IDV60801/IDV60801.94872.json